Time;durP1;ratioP1;P1;durP2;ratioP2;P2;SDS_P1;SDS_P2;PMS_P1;PMS_P2;Temp;Humidity;BMP_temperature;BMP_pressure;BME280_temperature;BME280_humidity;BME280_pressure;Samples;Min_cycle;Max_cycle;Signal;HPM_P1;HPM_P2
2023/04/27 00:02:18;;;;;;;14.25;3.45;;;;;;;5.19;100.00;99728.91;4911882;29;20231;-77
2023/04/27 00:04:46;;;;;;;9.60;2.53;;;;;;;5.14;100.00;99749.78;4907973;29;20326;-78
2023/04/27 00:07:14;;;;;;;10.38;2.60;;;;;;;5.24;100.00;99770.13;4894618;29;20243;-78
2023/04/27 00:09:41;;;;;;;8.80;2.28;;;;;;;5.42;100.00;99801.94;4906664;29;20239;-77
2023/04/27 00:12:09;;;;;;;14.32;3.38;;;;;;;4.81;100.00;99773.56;4911440;29;20269;-77
2023/04/27 00:14:36;;;;;;;7.07;1.95;;;6.80;99.90;;;4.64;100.00;99781.06;4911299;29;20318;-76
2023/04/27 00:17:03;;;;;;;8.32;2.22;;;;;;;4.87;100.00;99802.50;4908005;29;20247;-77
2023/04/27 00:19:31;;;;;;;11.80;3.10;;;;;;;4.63;100.00;99815.94;4910332;29;20243;-77
2023/04/27 00:21:58;;;;;;;7.47;2.08;;;;;;;4.72;100.00;99831.00;4913973;29;20259;-77
2023/04/27 00:24:26;;;;;;;9.25;2.53;;;;;;;4.67;100.00;99846.59;4905903;29;20872;-77
2023/04/27 00:26:54;;;;;;;7.55;2.08;;;;;;;4.66;100.00;99850.06;4885988;29;20239;-77
2023/04/27 00:29:21;;;;;;;11.27;3.00;;;;;;;4.69;100.00;99863.22;4906044;29;20290;-77
2023/04/27 00:31:49;;;;;;;14.13;3.58;;;;;;;4.82;100.00;99880.13;4907349;29;20269;-77
2023/04/27 00:34:16;;;;;;;10.43;2.75;;;;;;;4.94;100.00;99895.22;4906379;29;20231;-77
2023/04/27 00:36:44;;;;;;;5.30;1.58;;;;;;;4.96;100.00;99910.13;4910862;29;20243;-77
2023/04/27 00:39:11;;;;;;;8.77;2.53;;;;;;;4.55;100.00;99888.22;4912670;29;20263;-77
2023/04/27 00:41:39;;;;;;;11.23;3.10;;;;;;;4.85;100.00;99900.25;4906049;29;20231;-77
2023/04/27 00:44:07;;;;;;;6.60;1.95;;;;;;;4.92;100.00;99915.28;4909833;29;20243;-77
2023/04/27 00:46:35;;;;;;;9.02;2.55;;;;;;;4.96;100.00;99928.47;4907500;29;20322;-77
2023/04/27 00:49:02;;;;;;;9.05;2.65;;;;;;;5.01;100.00;99929.47;4901779;29;20257;-77
2023/04/27 00:51:30;;;;;;;11.05;2.88;;;;;;;4.67;100.00;99908.56;4892449;29;20235;-77
2023/04/27 00:53:58;;;;;;;6.68;1.95;;;;;;;4.51;100.00;99904.69;4911302;29;20249;-77
2023/04/27 00:56:26;;;;;;;6.60;1.83;;;;;;;4.41;100.00;99919.28;4901335;29;20314;-77
2023/04/27 00:58:53;;;;;;;7.95;2.22;;;;;;;4.57;100.00;99945.84;4894231;29;20271;-77
2023/04/27 01:01:21;;;;;;;9.40;2.70;;;;;;;4.15;100.00;99938.66;4910797;29;20258;-77
2023/04/27 01:03:48;;;;;;;7.03;1.98;;;;;;;4.51;100.00;99983.25;4899340;29;20242;-77
2023/04/27 01:06:16;;;;;;;19.17;5.53;;;;;;;4.71;100.00;100012.56;4895750;29;20257;-77
2023/04/27 01:08:45;;;;;;;11.35;3.05;;;;;;;4.28;100.00;99990.50;4913990;29;20239;-78
2023/04/27 01:11:12;;;;;;;11.60;2.88;;;;;;;4.39;100.00;100001.25;4909736;29;20325;-77
2023/04/27 01:13:40;;;;;;;8.13;2.20;;;;;;;4.61;100.00;100034.13;4914054;29;20772;-77
2023/04/27 01:16:07;;;;;;;7.63;2.00;;;;;;;4.39;100.00;100030.03;4914048;29;20302;-77
2023/04/27 01:18:35;;;;;;;8.73;2.38;;;;;;;4.24;100.00;100025.28;4915399;29;20239;-77
2023/04/27 01:21:02;;;;;;;7.88;2.05;;;;;;;4.47;100.00;100058.22;4915259;29;20302;-77
2023/04/27 01:23:29;;;;;;;10.80;2.67;;;;;;;4.40;100.00;100068.47;4908982;29;20243;-77
2023/04/27 01:25:57;;;;;;;9.20;2.55;;;;;;;4.15;100.00;100048.56;4913639;29;20235;-77
2023/04/27 01:28:24;;;;;;;7.60;2.10;;;;;;;4.30;100.00;100067.31;4889542;29;20769;-77
2023/04/27 01:30:52;;;;;;;8.70;2.47;;;;;;;4.71;100.00;100120.84;4914728;29;20298;-77
2023/04/27 01:33:20;;;;;;;13.25;3.45;;;;;;;4.62;100.00;100089.16;4914214;29;20236;-77
2023/04/27 01:35:48;;;;;;;8.63;2.22;;;;;;;4.26;100.00;100070.69;4908647;29;20240;-77
2023/04/27 01:38:16;;;;;;;9.40;2.42;;;;;;;4.12;100.00;100061.56;4913291;29;20239;-77
2023/04/27 01:40:43;;;;;;;10.05;2.50;;;;;;;4.17;100.00;100073.06;4898611;29;20648;-77
2023/04/27 01:43:10;;;;;;;9.10;2.30;;;;;;;4.41;100.00;100107.78;4915535;29;20243;-78
2023/04/27 01:45:38;;;;;;;11.77;3.08;;;;;;;4.53;100.00;100115.09;4915527;29;20243;-77
2023/04/27 01:48:05;;;;;;;7.90;2.00;;;;;;;4.49;100.00;100105.38;4918880;29;20319;-77
2023/04/27 01:50:33;;;;;;;12.32;3.00;;;;;;;4.46;100.00;100100.94;4907409;29;20246;-78
2023/04/27 01:53:00;;;;;;;9.20;2.28;;;;;;;4.21;100.00;100085.38;4907869;29;20236;-77
2023/04/27 01:55:28;;;;;;;10.38;2.58;;;;;;;4.23;100.00;100093.28;4901857;29;20635;-77
2023/04/27 01:57:55;;;;;;;9.13;2.28;;;;;;;4.19;100.00;100092.31;4911614;29;20239;-77
2023/04/27 02:00:23;;;;;;;7.95;2.00;;;;;;;4.24;100.00;100116.88;4899144;29;20399;-77
2023/04/27 02:02:52;;;;;;;12.27;3.05;;;;;;;4.43;100.00;100160.19;4905067;29;20243;-77
2023/04/27 02:05:19;;;;;;;8.40;2.05;;;;;;;4.45;100.00;100162.00;4908560;29;20242;-78
2023/04/27 02:07:48;;;;;;;10.80;2.55;;;4.60;99.90;;;4.78;100.00;100203.09;4914441;29;20254;-77
2023/04/27 02:10:16;;;;;;;14.05;3.33;;;;;;;4.94;100.00;100207.03;4910229;29;20752;-77
2023/04/27 02:12:43;;;;;;;8.68;2.15;;;;;;;4.91;100.00;100192.13;4913704;29;20653;-77
2023/04/27 02:15:11;;;;;;;12.23;2.90;;;;;;;4.99;100.00;100181.84;4908319;29;20290;-77
2023/04/27 02:17:38;;;;;;;17.55;3.97;;;;;;;5.02;100.00;100167.09;4905621;29;20258;-77
2023/04/27 02:20:07;;;;;;;10.70;2.53;;;5.10;99.90;;;5.05;100.00;100161.94;4892011;29;20235;-77
2023/04/27 02:22:35;;;;;;;16.05;3.78;;;;;;;5.12;100.00;100147.25;4912693;29;20317;-77
2023/04/27 02:25:02;;;;;;;10.23;2.50;;;;;;;5.20;100.00;100156.25;4907485;29;20284;-78
2023/04/27 02:27:30;;;;;;;13.55;3.20;;;;;;;5.26;100.00;100156.41;4912071;29;20266;-77
2023/04/27 02:29:58;;;;;;;17.73;4.25;;;;;;;5.22;100.00;100153.66;4906134;29;20244;-78
2023/04/27 02:32:26;;;;;;;10.35;2.60;;;;;;;5.35;100.00;100154.00;4910109;29;20578;-76
2023/04/27 02:34:55;;;;;;;13.93;3.45;;;;;;;5.26;100.00;100143.28;4904710;29;20245;-77
2023/04/27 02:37:22;;;;;;;8.57;2.25;;;;;;;5.32;100.00;100135.59;4915309;29;20263;-78
2023/04/27 02:39:50;;;;;;;13.05;3.30;;;;;;;5.41;100.00;100148.03;4913172;29;20270;-77
2023/04/27 02:42:17;;;;;;;15.57;3.63;;;;;;;5.45;100.00;100166.50;4894848;29;20262;-79
2023/04/27 02:44:45;;;;;;;19.10;4.72;;;;;;;5.37;100.00;100177.66;4914216;29;20306;-79
2023/04/27 02:47:12;;;;;;;8.68;2.38;;;;;;;5.55;100.00;100195.59;4912020;29;20258;-79
2023/04/27 02:49:40;;;;;;;16.33;4.35;;;;;;;5.51;100.00;100202.50;4914849;29;20231;-79
2023/04/27 02:52:07;;;;;;;21.45;5.32;;;;;;;5.48;100.00;100191.91;4917830;29;20325;-78
2023/04/27 02:54:35;;;;;;;15.85;4.00;;;;;;;5.46;100.00;100165.66;4913234;29;20246;-77
2023/04/27 02:57:03;;;;;;;15.10;3.92;;;;;;;5.40;100.00;100144.53;4912440;29;20311;-77
2023/04/27 02:59:30;;;;;;;12.25;3.17;;;;;;;5.38;100.00;100140.97;4917168;29;20265;-77
2023/04/27 03:01:57;;;;;;;11.00;2.78;;;;;;;5.43;100.00;100139.34;4910386;29;20241;-80
2023/04/27 03:04:26;;;;;;;10.63;2.72;;;;;;;5.41;100.00;100137.53;4904473;29;20288;-78
2023/04/27 03:06:54;;;;;;;20.30;5.10;;;;;;;5.40;100.00;100128.78;4899983;29;20242;-79
2023/04/27 03:09:22;;;;;;;16.23;4.03;;;;;;;5.39;100.00;100126.13;4902281;29;20243;-79
2023/04/27 03:11:49;;;;;;;14.05;3.58;;;;;;;5.47;100.00;100137.69;4907537;29;20239;-79
2023/04/27 03:14:16;;;;;;;11.45;2.88;;;;;;;5.52;100.00;100151.81;4914780;29;20266;-79
2023/04/27 03:16:44;;;;;;;17.95;4.35;;;;;;;5.52;100.00;100159.69;4886609;29;20302;-79
2023/04/27 03:19:12;;;;;;;9.65;2.65;;;;;;;5.61;100.00;100169.50;4914042;29;20237;-77
2023/04/27 03:21:39;;;;;;;20.17;5.10;;;5.50;99.90;;;5.61;100.00;100166.88;4904085;29;20330;-79
2023/04/27 03:24:07;;;;;;;16.55;4.15;;;;;;;5.55;100.00;100153.63;4907008;29;20243;-79
2023/04/27 03:26:34;;;;;;;15.60;3.88;;;;;;;5.64;100.00;100161.72;4899510;29;20281;-78
2023/04/27 03:29:01;;;;;;;12.77;3.42;;;;;;;5.71;100.00;100179.38;4897976;29;20271;-78
2023/04/27 03:31:29;;;;;;;9.82;2.60;;;;;;;5.67;100.00;100170.53;4911577;29;20267;-79
2023/04/27 03:33:56;;;;;;;11.20;2.88;;;;;;;5.68;100.00;100153.97;4915758;29;20247;-80
2023/04/27 03:36:24;;;;;;;18.10;4.68;;;;;;;5.73;100.00;100161.94;4916150;29;20262;-79
2023/04/27 03:38:51;;;;;;;14.10;3.75;;;;;;;5.75;100.00;100161.13;4915946;29;20231;-79
2023/04/27 03:41:19;;;;;;;12.55;3.25;;;;;;;5.79;100.00;100173.47;4913021;29;20261;-79
2023/04/27 03:43:46;;;;;;;12.10;2.95;;;;;;;5.75;100.00;100173.34;4914461;29;20318;-78
2023/04/27 03:46:13;;;;;;;19.67;4.78;;;;;;;5.74;100.00;100175.09;4910266;29;20299;-77
2023/04/27 03:48:42;;;;;;;15.60;3.78;;;;;;;5.78;100.00;100179.56;4913469;29;20231;-79
2023/04/27 03:51:10;;;;;;;13.07;3.33;;;;;;;5.81;100.00;100157.75;4911186;29;20250;-77
2023/04/27 03:53:37;;;;;;;12.40;3.13;;;;;;;5.88;100.00;100151.81;4915436;29;20326;-79
2023/04/27 03:56:05;;;;;;;13.02;3.33;;;;;;;5.93;100.00;100146.69;4910127;29;20271;-78
2023/04/27 03:58:32;;;;;;;12.25;3.15;;;;;;;5.98;100.00;100150.31;4919639;29;20239;-78
2023/04/27 04:01:00;;;;;;;13.73;3.55;;;;;;;6.00;100.00;100157.38;4909661;29;20247;-79
2023/04/27 04:03:27;;;;;;;15.23;3.85;;;;;;;6.01;100.00;100145.13;4910215;29;20289;-78
2023/04/27 04:05:55;;;;;;;9.20;2.60;;;;;;;5.92;100.00;100132.69;4911399;29;20266;-79
2023/04/27 04:08:22;;;;;;;9.43;2.70;;;;;;;5.95;100.00;100113.50;4920849;29;20238;-78
2023/04/27 04:10:50;;;;;;;11.40;2.83;;;;;;;5.97;100.00;100117.03;4921987;29;20286;-78
2023/04/27 04:13:17;;;;;;;11.75;3.10;;;;;;;6.05;100.00;100120.72;4904259;29;20239;-78
2023/04/27 04:15:45;;;;;;;9.73;2.58;;;;;;;6.02;100.00;100118.03;4923412;29;20243;-78
2023/04/27 04:18:12;;;;;;;9.73;2.67;;;;;;;6.03;100.00;100111.94;4920412;29;20243;-78
2023/04/27 04:20:40;;;;;;;13.50;3.70;;;;;;;6.07;100.00;100121.63;4911150;29;20239;-78
2023/04/27 04:23:07;;;;;;;10.27;3.03;;;;;;;6.05;100.00;100115.47;4917485;29;20288;-78
2023/04/27 04:25:35;;;;;;;10.07;2.83;;;;;;;6.08;100.00;100112.91;4898105;29;20246;-78
2023/04/27 04:28:02;;;;;;;9.40;2.88;;;;;;;6.06;100.00;100104.13;4894821;29;20298;-79
2023/04/27 04:30:30;;;;;;;17.60;4.65;;;;;;;6.13;100.00;100105.13;4908939;29;20231;-79
2023/04/27 04:32:57;;;;;;;12.57;3.50;;;;;;;6.16;100.00;100134.97;4898411;29;20245;-79
2023/04/27 04:35:25;;;;;;;15.80;3.95;;;;;;;6.16;100.00;100170.84;4901764;29;20665;-79
2023/04/27 04:37:52;;;;;;;12.30;3.13;;;;;;;6.14;100.00;100209.28;4914142;29;20716;-80
2023/04/27 04:40:20;;;;;;;12.25;3.50;;;;;;;6.16;100.00;100221.59;4916522;29;20254;-79
2023/04/27 04:42:47;;;;;;;14.75;3.75;;;;;;;6.21;100.00;100221.72;4906980;29;20243;-80
2023/04/27 04:45:14;;;;;;;13.52;3.45;;;6.30;99.90;;;6.26;100.00;100241.97;4912675;29;20270;-78
2023/04/27 04:47:42;;;;;;;8.15;2.30;;;;;;;6.22;100.00;100247.13;4918777;29;20246;-80
2023/04/27 04:50:10;;;;;;;15.20;4.15;;;6.20;99.90;;;6.24;100.00;100261.16;4910428;29;20259;-79
2023/04/27 04:52:38;;;;;;;11.63;3.20;;;;;;;6.15;100.00;100271.47;4910020;29;20322;-79
2023/04/27 04:55:06;;;;;;;10.25;2.72;;;;;;;6.18;100.00;100285.53;4917716;29;20259;-80
2023/04/27 04:57:33;;;;;;;16.35;4.03;;;;;;;6.23;100.00;100312.81;4903551;29;20343;-80
2023/04/27 05:00:01;;;;;;;15.40;3.70;;;;;;;6.19;100.00;100324.09;4909143;29;20247;-81
2023/04/27 05:02:28;;;;;;;22.58;5.45;;;;;;;6.17;100.00;100327.53;4911266;29;20235;-79
2023/04/27 05:04:56;;;;;;;13.65;3.58;;;;;;;6.22;100.00;100333.78;4902489;29;20271;-81
2023/04/27 05:07:24;;;;;;;13.43;3.42;;;;;;;6.23;100.00;100349.56;4894044;29;20298;-81
2023/04/27 05:09:52;;;;;;;22.13;5.32;;;;;;;6.30;100.00;100354.13;4906023;29;20227;-82
2023/04/27 05:12:19;;;;;;;24.40;5.72;;;;;;;6.34;100.00;100370.84;4909896;29;20327;-80
2023/04/27 05:14:47;;;;;;;15.70;3.85;;;;;;;6.33;100.00;100388.34;4907072;29;20231;-81
2023/04/27 05:17:14;;;;;;;12.40;3.63;;;;;;;6.42;100.00;100403.44;4909498;29;20244;-80
2023/04/27 05:19:42;;;;;;;16.08;4.13;;;;;;;6.49;100.00;100410.63;4907973;29;20283;-81
2023/04/27 05:22:09;;;;;;;16.05;3.83;;;;;;;6.57;100.00;100430.13;4906773;29;20235;-80
2023/04/27 05:24:37;;;;;;;17.77;4.82;;;;;;;6.61;100.00;100434.59;4903199;29;20234;-81
2023/04/27 05:27:04;;;;;;;15.88;4.22;;;;;;;6.65;100.00;100440.81;4912056;29;20231;-82
2023/04/27 05:29:32;;;;;;;12.45;3.28;;;;;;;6.73;100.00;100441.91;4903377;29;20302;-81
2023/04/27 05:32:00;;;;;;;10.57;2.92;;;;;;;6.76;100.00;100446.34;4905367;29;20657;-79
2023/04/27 05:34:27;;;;;;;13.57;3.28;;;;;;;6.79;100.00;100446.41;4907929;29;20243;-81
2023/04/27 05:36:55;;;;;;;17.65;4.38;;;;;;;6.80;100.00;100419.28;4914057;29;20315;-82
2023/04/27 05:39:22;;;;;;;22.58;5.68;;;;;;;6.91;100.00;100420.44;4892777;29;20286;-81
2023/04/27 05:41:50;;;;;;;10.50;2.95;;;;;;;6.95;100.00;100411.75;4911800;29;20235;-81
2023/04/27 05:44:17;;;;;;;11.25;3.08;;;;;;;6.97;100.00;100392.53;4904530;29;20279;-80
2023/04/27 05:46:45;;;;;;;13.05;3.92;;;;;;;7.04;100.00;100369.91;4905343;29;20334;-81
2023/04/27 05:49:12;;;;;;;8.38;2.38;;;;;;;7.12;100.00;100363.06;4910820;29;20243;-80
2023/04/27 05:51:40;;;;;;;21.10;5.45;;;;;;;7.10;100.00;100340.22;4894232;29;20291;-81
2023/04/27 05:54:08;;;;;;;22.67;5.95;;;;;;;7.18;100.00;100330.75;4907106;29;20720;-80
2023/04/27 05:56:36;;;;;;;11.20;2.72;;;;;;;7.29;100.00;100329.22;4908683;29;20302;-81
2023/04/27 05:59:04;;;;;;;15.52;3.70;;;;;;;7.44;100.00;100337.44;4905534;29;20712;-81
2023/04/27 06:01:32;;;;;;;12.05;3.10;;;;;;;7.50;100.00;100340.19;4913678;29;20227;-81
2023/04/27 06:04:00;;;;;;;13.88;3.65;;;;;;;7.56;100.00;100329.78;4907161;29;20322;-80
2023/04/27 06:06:31;;;;;;;13.18;3.50;;;7.50;99.90;;;7.56;100.00;100319.25;4917942;29;20290;-81
2023/04/27 06:08:59;;;;;;;8.77;2.42;;;;;;;7.70;100.00;100304.59;4916231;29;20372;-82
2023/04/27 06:11:27;;;;;;;19.15;5.50;;;;;;;7.77;100.00;100296.81;4919304;29;20235;-82
2023/04/27 06:13:55;;;;;;;14.20;3.90;;;;;;;7.89;100.00;100300.59;4902261;29;20274;-83
2023/04/27 06:16:23;;;;;;;12.38;3.50;;;;;;;7.88;100.00;100298.81;4921437;29;20249;-83
2023/04/27 06:18:51;;;;;;;16.65;4.07;;;;;;;7.97;100.00;100292.81;4921298;29;20239;-81
2023/04/27 06:21:18;;;;;;;10.45;2.60;;;;;;;8.02;100.00;100278.88;4924972;29;20272;-82
2023/04/27 06:23:46;;;;;;;10.90;2.75;;;;;;;8.10;100.00;100280.75;4899915;29;20354;-82
2023/04/27 06:26:13;;;;;;;11.05;2.63;;;;;;;8.09;100.00;100250.00;4924957;29;20235;-80
2023/04/27 06:28:41;;;;;;;15.57;3.80;;;;;;;8.21;100.00;100248.44;4925556;29;20236;-81
2023/04/27 06:31:08;;;;;;;13.90;3.45;;;;;;;8.15;100.00;100213.22;4899037;29;20243;-82
2023/04/27 06:33:36;;;;;;;10.60;2.58;;;;;;;8.23;100.00;100187.88;4911622;29;20317;-81
2023/04/27 06:36:04;;;;;;;14.45;3.70;;;;;;;8.29;100.00;100182.69;4926097;29;20235;-82
2023/04/27 06:38:31;;;;;;;11.10;2.85;;;;;;;8.25;100.00;100147.53;4925169;29;20231;-82
2023/04/27 06:40:59;;;;;;;12.75;3.67;;;;;;;8.49;100.00;100162.81;4911080;29;20242;-81
2023/04/27 06:43:26;;;;;;;16.25;4.30;;;;;;;8.56;100.00;100176.94;4917370;29;20262;-80
2023/04/27 06:45:53;;;;;;;8.18;2.33;;;8.50;99.90;;;8.54;100.00;100140.03;4922037;29;20317;-82
2023/04/27 06:48:21;;;;;;;10.20;2.65;;;;;;;8.75;100.00;100143.78;4914906;29;20247;-81
2023/04/27 06:50:49;;;;;;;14.07;3.88;;;;;;;8.72;100.00;100120.03;4895197;29;20329;-82
2023/04/27 06:53:17;;;;;;;13.52;3.65;;;;;;;8.86;100.00;100110.53;4914520;29;20239;-80
2023/04/27 06:55:44;;;;;;;13.70;3.75;;;;;;;8.92;100.00;100103.56;4907121;29;20235;-82
2023/04/27 06:58:14;;;;;;;15.95;4.45;;;8.80;99.90;;;8.96;100.00;100083.38;4909548;29;20283;-82
2023/04/27 07:00:42;;;;;;;9.80;2.67;;;;;;;9.20;100.00;100103.84;4915369;29;20234;-82
2023/04/27 07:03:10;;;;;;;10.93;2.95;;;;;;;9.28;100.00;100095.16;4892498;29;20239;-81
2023/04/27 07:05:38;;;;;;;8.77;2.40;;;;;;;9.38;100.00;100092.56;4916947;29;20321;-80
2023/04/27 07:08:06;;;;;;;13.50;3.67;;;;;;;9.45;100.00;100112.88;4910379;29;20238;-80
2023/04/27 07:10:35;;;;;;;8.88;2.42;;;;;;;9.56;100.00;100113.84;4912395;29;20238;-82
2023/04/27 07:13:03;;;;;;;9.35;2.45;;;;;;;9.39;100.00;100068.84;4913633;29;20235;-80
2023/04/27 07:15:33;;;;;;;13.38;3.60;;;;;;;9.62;100.00;100083.09;4898309;29;20699;-81
2023/04/27 07:18:01;;;;;;;8.73;3.03;;;;;;;9.83;100.00;100089.41;4915457;29;20239;-81
2023/04/27 07:20:28;;;;;;;15.60;4.10;;;;;;;9.85;100.00;100087.66;4903362;29;20748;-80
2023/04/27 07:22:56;;;;;;;11.70;3.13;;;;;;;9.77;100.00;100084.97;4910940;29;20231;-81
2023/04/27 07:25:24;;;;;;;12.73;3.47;;;;;;;9.98;100.00;100067.47;4898367;29;20367;-81
2023/04/27 07:27:51;;;;;;;13.00;3.63;;;;;;;9.97;100.00;100048.09;4907891;29;20294;-81
2023/04/27 07:30:18;;;;;;;12.32;3.72;;;;;;;10.00;100.00;100040.19;4909267;29;20237;-82
2023/04/27 07:32:52;;;;;;;13.70;3.90;;;;;;;9.94;100.00;100034.88;4899402;29;20239;-81
2023/04/27 07:35:21;;;;;;;7.60;2.63;;;;;;;10.03;100.00;100018.19;4921369;29;20324;-81
2023/04/27 07:37:48;;;;;;;9.38;2.47;;;;;;;10.20;100.00;100017.41;4914886;29;20239;-81
2023/04/27 07:40:16;;;;;;;8.65;2.42;;;;;;;10.45;100.00;100004.31;4923586;29;20242;-80
2023/04/27 07:42:45;;;;;;;11.25;3.20;;;;;;;10.56;100.00;100002.56;4911718;29;20263;-82
2023/04/27 07:45:13;;;;;;;10.35;2.90;;;;;;;10.82;100.00;99984.09;4913930;29;20255;-81
2023/04/27 07:47:41;;;;;;;7.55;2.28;;;;;;;10.63;100.00;99969.97;4914925;29;20231;-80
2023/04/27 07:50:09;;;;;;;7.72;2.30;;;;;;;10.70;100.00;99973.50;4912941;29;20346;-80
2023/04/27 07:52:37;;;;;;;9.65;2.88;;;;;;;10.98;100.00;99983.22;4918171;29;20239;-79
2023/04/27 07:55:05;;;;;;;8.70;2.70;;;10.70;99.90;;;10.60;100.00;99918.84;4918634;29;20286;-81
2023/04/27 07:57:32;;;;;;;6.35;2.08;;;;;;;10.96;100.00;99915.31;4914508;29;20246;-81
2023/04/27 08:00:01;;;;;;;9.48;2.83;;;;;;;11.06;100.00;99917.94;4911662;29;20239;-81
2023/04/27 08:02:30;;;;;;;19.50;5.88;;;;;;;10.94;100.00;99886.22;4908361;29;20273;-80
2023/04/27 08:04:58;;;;;;;10.15;3.00;;;;;;;11.05;100.00;99867.69;4920431;29;20231;-81
2023/04/27 08:07:26;;;;;;;5.90;2.03;;;;;;;11.26;100.00;99878.22;4910721;29;20249;-79
2023/04/27 08:09:54;;;;;;;8.15;2.53;;;;;;;11.00;100.00;99814.78;4904903;29;20234;-81
2023/04/27 08:12:21;;;;;;;6.47;2.22;;;;;;;11.47;100.00;99840.19;4921374;29;20293;-81
2023/04/27 08:14:49;;;;;;;11.77;3.83;;;;;;;11.60;100.00;99802.19;4903086;29;20235;-81
2023/04/27 08:17:17;;;;;;;5.85;2.05;;;;;;;11.32;100.00;99752.91;4922734;29;20269;-82
2023/04/27 08:19:44;;;;;;;7.10;2.22;;;;;;;11.88;100.00;99762.34;4920047;29;20234;-79
2023/04/27 08:22:12;;;;;;;15.35;5.45;;;;;;;11.65;100.00;99686.50;4921950;29;20345;-78
2023/04/27 08:24:39;;;;;;;4.82;2.33;;;;;;;11.71;100.00;99662.66;4906950;29;20243;-81
2023/04/27 08:27:07;;;;;;;4.53;2.03;;;;;;;11.79;100.00;99652.03;4916200;29;20261;-82
2023/04/27 08:29:35;;;;;;;7.32;2.78;;;;;;;12.09;100.00;99649.09;4910971;29;20275;-81
2023/04/27 08:32:03;;;;;;;7.05;2.67;;;12.10;99.90;;;12.38;100.00;99643.50;4907593;29;20299;-78
2023/04/27 08:34:31;;;;;;;7.43;2.72;;;;;;;12.19;100.00;99607.50;4909926;29;20247;-81
2023/04/27 08:36:59;;;;;;;7.57;2.88;;;;;;;12.54;100.00;99649.50;4917815;29;20246;-81
2023/04/27 08:39:26;;;;;;;4.03;1.80;;;;;;;12.72;100.00;99611.28;4921085;29;20912;-81
2023/04/27 08:41:54;;;;;;;7.70;2.70;;;;;;;12.58;100.00;99550.44;4914707;29;20267;-80
2023/04/27 08:44:22;;;;;;;5.75;1.90;;;;;;;12.94;100.00;99543.75;4924914;29;20308;-79
2023/04/27 08:46:50;;;;;;;5.43;2.30;;;13.00;99.90;;;12.98;100.00;99483.53;4910234;29;20239;-79
2023/04/27 08:49:19;;;;;;;6.32;2.70;;;;;;;12.95;100.00;99419.91;4898580;29;20307;-80
2023/04/27 08:51:47;;;;;;;6.20;2.40;;;;;;;12.94;100.00;99404.88;4921728;29;20261;-80
2023/04/27 08:54:15;;;;;;;9.65;3.67;;;;;;;13.66;100.00;99453.19;4905931;29;20231;-79
2023/04/27 08:56:42;;;;;;;6.25;2.60;;;;;;;14.11;100.00;99469.13;4912993;29;20417;-83
2023/04/27 08:59:14;;;;;;;3.40;1.70;;;13.50;99.90;;;13.30;100.00;99377.75;4910110;29;20239;-81
2023/04/27 09:01:47;;;;;;;3.15;1.50;;;13.50;99.90;;;13.49;100.00;99426.06;4894571;29;20246;-81
2023/04/27 09:04:16;;;;;;;6.18;2.78;;;;;;;13.75;100.00;99471.63;4905805;29;20319;-81
2023/04/27 09:06:45;;;;;;;4.75;2.60;;;;;;;13.73;100.00;99364.50;4903763;29;20248;-82
2023/04/27 09:09:22;;;;;;;6.07;3.10;;;14.00;99.90;;;14.36;100.00;99438.47;4906817;29;20262;-82
2023/04/27 09:11:50;;;;;;;5.10;2.40;;;;;;;14.09;100.00;99335.38;4909252;29;20298;-82
2023/04/27 09:14:22;;;;;;;2.58;1.40;;;14.30;99.90;;;14.24;100.00;99387.31;4916153;29;20241;-79
2023/04/27 09:16:58;;;;;;;3.90;2.25;;;14.50;99.90;;;14.30;100.00;99326.91;4917183;29;20238;-79
2023/04/27 09:19:29;;;;;;;4.63;2.65;;;14.30;99.90;;;14.25;100.00;99325.25;4892313;29;20290;-79
2023/04/27 09:22:10;;;;;;;3.03;1.80;;;14.60;99.90;;;14.63;100.00;99324.38;4911914;29;20235;-79
2023/04/27 09:24:38;;;;;;;3.33;2.08;;;;;;;14.76;100.00;99296.53;4914046;29;20243;-80
2023/04/27 09:27:06;;;;;;;3.13;1.83;;;14.70;99.90;;;14.78;100.00;99225.53;4920127;29;20412;-80
2023/04/27 09:29:37;;;;;;;2.38;1.50;;;14.70;99.90;;;14.59;100.00;99144.47;4912150;29;20247;-79
2023/04/27 09:32:19;;;;;;;4.03;2.13;;;14.30;99.90;;;14.53;100.00;99056.84;4911654;29;20314;-80
2023/04/27 09:34:47;;;;;;;3.45;1.90;;;;;;;14.79;100.00;99112.84;4915995;29;20231;-80
2023/04/27 09:37:15;;;;;;;3.10;1.63;;;15.20;99.90;;;15.00;100.00;99204.50;4919588;29;20251;-80
2023/04/27 09:39:43;;;;;;;3.47;1.73;;;;;;;14.57;100.00;99075.34;4924951;29;20249;-80
2023/04/27 09:42:12;;;;;;;5.15;2.33;;;15.10;99.90;;;14.93;100.00;99099.13;4903510;29;20243;-80
2023/04/27 09:44:39;;;;;;;2.17;1.25;;;;;;;15.20;100.00;99171.97;4915089;29;20236;-80
2023/04/27 09:47:07;;;;;;;3.03;1.63;;;;;;;15.08;100.00;99074.69;4919853;29;20234;-80
2023/04/27 09:49:35;;;;;;;3.20;1.77;;;;;;;14.41;100.00;98882.50;4900374;29;20231;-80
2023/04/27 09:52:03;;;;;;;6.22;3.25;;;;;;;15.39;100.00;99050.63;4889512;29;20247;-81
2023/04/27 09:54:32;;;;;;;4.03;2.30;;;15.40;99.90;;;15.19;100.00;99048.59;4917684;29;20247;-80
2023/04/27 09:57:32;;;;;;;2.72;1.42;;;15.50;99.90;;;15.97;100.00;99110.06;4914725;29;20314;-80
2023/04/27 10:00:33;;;;;;;3.95;1.88;;;16.20;99.90;;;15.49;100.00;98979.25;4893232;29;20240;-80
2023/04/27 10:03:35;;;;;;;3.92;2.08;;;16.60;99.90;;;16.36;100.00;99097.13;4919935;29;20299;-81
2023/04/27 10:06:33;;;;;;;5.70;2.78;;;15.70;99.90;;;15.73;100.00;98945.63;4904365;29;20250;-81
2023/04/27 10:09:05;;;;;;;4.53;2.10;;;16.50;99.90;;;16.60;100.00;99042.84;4915424;29;20306;-82
2023/04/27 10:11:46;;;;;;;1.95;1.20;;;16.90;99.90;;;16.60;100.00;98959.25;4921972;29;20238;-82
2023/04/27 10:14:20;;;;;;;2.65;1.55;;;17.20;99.90;;;17.20;100.00;99014.75;4920268;29;20271;-82
2023/04/27 10:16:56;;;;;;;4.07;1.92;;;17.00;99.90;;;16.94;100.00;98949.03;4919727;29;20235;-82
2023/04/27 10:19:24;;;;;;;1.92;1.38;;;;;;;16.59;100.00;98824.94;4876193;29;20234;-82
2023/04/27 10:21:55;;;;;;;2.00;1.13;;;17.00;99.20;;;16.85;100.00;98887.97;4919012;29;20230;-82
2023/04/27 10:24:39;;;;;;;3.80;2.30;;;17.20;99.80;;;17.19;100.00;98879.44;4913672;29;20234;-82
2023/04/27 10:27:10;;;;;;;1.75;1.10;;;16.90;98.80;;;16.20;100.00;98694.06;4892812;29;20257;-80
2023/04/27 10:29:46;;;;;;;2.35;1.42;;;16.70;98.20;;;16.77;100.00;98737.06;4919256;29;20259;-80
2023/04/27 10:32:24;;;;;;;3.55;1.70;;;17.20;99.30;;;16.90;100.00;98727.59;4897239;29;20657;-80
2023/04/27 10:35:02;;;;;;;2.15;1.63;;;;;;;17.64;100.00;98806.22;4916873;29;20249;-80
2023/04/27 10:37:41;;;;;;;1.48;1.00;;;17.70;99.30;;;17.39;100.00;98742.31;4913292;29;20242;-80
2023/04/27 10:40:16;;;;;;;1.13;0.80;;;17.30;97.70;;;17.25;100.00;98668.16;4918500;29;20629;-80
2023/04/27 10:42:48;;;;;;;1.13;0.88;;;17.80;96.80;;;17.57;100.00;98692.50;4907681;29;20273;-80
2023/04/27 10:45:26;;;;;;;1.45;1.00;;;17.60;99.90;;;17.78;100.00;98761.03;4918182;29;20249;-80
2023/04/27 10:47:59;;;;;;;1.20;0.98;;;18.00;98.10;;;17.76;100.00;98695.19;4907927;29;20246;-80
2023/04/27 10:50:28;;;;;;;1.25;1.02;;;;;;;17.30;100.00;98574.44;4908951;29;20235;-80
2023/04/27 10:53:03;;;;;;;0.73;0.57;;;17.90;97.90;;;18.17;100.00;98666.44;4914363;29;20234;-80
2023/04/27 10:55:31;;;;;;;1.02;0.75;;;;;;;17.63;100.00;98557.69;4916013;29;20280;-80
2023/04/27 10:58:00;;;;;;;1.13;1.00;;;;;;;17.75;100.00;98551.78;4920218;29;20234;-81
2023/04/27 11:00:37;;;;;;;1.05;0.93;;;17.70;99.40;;;17.44;100.00;98557.72;4920151;29;20249;-80
2023/04/27 11:03:15;;;;;;;1.52;1.05;;;18.30;99.80;;;18.42;100.00;98730.31;4920056;29;20230;-81
2023/04/27 11:05:45;;;;;;;1.13;1.02;;;18.30;98.30;;;17.91;100.00;98571.47;4912532;29;20242;-80
2023/04/27 11:08:16;;;;;;;0.60;0.52;;;17.80;96.90;;;17.22;100.00;98424.34;4918270;29;20242;-81
2023/04/27 11:10:52;;;;;;;1.02;0.93;;;17.60;96.60;;;17.60;100.00;98463.38;4920998;29;20264;-80
2023/04/27 11:13:24;;;;;;;0.95;0.77;;;18.10;96.50;;;18.04;100.00;98495.00;4910832;29;20242;-80
2023/04/27 11:15:56;;;;;;;0.40;0.38;;;18.50;97.60;;;18.37;100.00;98500.41;4919898;29;20275;-81